Data for 02/27/2013

Time Sea-Level Adjusted Pressure Absolute Pressure Temperature Relative Humidity Dew Point   
(mb) (inHg) (mb) (inHg) (C) (F) (%) (C) (F)
00:05 1022 30.18 852 25.16 -3.8 25.1 58 -11 12.1
00:10 1022 30.18 852 25.16 -4 24.9 59 -10.8 12.6
00:15 1022 30.18 852 25.16 -4 24.8 59 -10.9 12.4
00:20 1022 30.18 852 25.16 -3.9 25 59 -10.8 12.6
00:25 1023 30.21 852 25.16 -3.8 25.1 59 -10.7 12.7
00:30 1023 30.21 852 25.16 -3.8 25.3 60 -10.5 13.1
00:35 1023 30.21 852 25.16 -3.7 25.4 59 -10.5 13.2
00:40 1023 30.21 852 25.16 -3.6 25.5 58 -10.6 12.9
00:45 1023 30.21 852 25.16 -3.5 25.6 59 -10.5 13.1
00:50 1023 30.21 852 25.16 -3.4 25.9 58 -10.5 13.1
00:55 1023 30.21 852 25.16 -3.4 25.9 59 -10.3 13.4
01:00 1022 30.18 852 25.16 -3.5 25.7 58 -10.6 13
01:05 1022 30.18 852 25.16 -3.7 25.4 60 -10.3 13.5
01:10 1022 30.18 852 25.16 -4 24.7 61 -10.4 13.2
01:15 1022 30.18 852 25.16 -4.3 24.3 62 -10.5 13.1
01:20 1022 30.18 852 25.16 -4.1 24.6 60 -10.7 12.7
01:25 1022 30.18 852 25.16 -3.9 24.9 61 -10.4 13.4
01:30 1022 30.18 852 25.16 -4.2 24.5 61 -10.6 12.9
01:35 1022 30.18 852 25.16 -4.5 24 61 -10.8 12.5
01:40 1022 30.18 852 25.16 -4.8 23.4 61 -11.1 12
01:45 1022 30.18 852 25.16 -4.8 23.4 61 -11.2 11.9
01:50 1022 30.18 852 25.16 -4.5 23.9 61 -11 12.2
01:55 1022 30.18 852 25.16 -4.5 23.8 61 -11.1 12.1
02:00 1022 30.18 852 25.16 -4.8 23.4 61 -11.2 11.9
02:05 1022 30.18 852 25.16 -4.9 23.1 62 -11.2 11.8
02:10 1022 30.18 852 25.16 -4.7 23.6 61 -11.2 11.9
02:15 1022 30.18 852 25.16 -4.6 23.8 60 -11.1 12
02:20 1022 30.18 852 25.16 -4.9 23.2 62 -11.2 11.9
02:25 1022 30.18 852 25.16 -5.2 22.7 62 -11.3 11.7
02:30 1022 30.18 852 25.16 -5.7 21.8 66 -11 12.1
02:35 1022 30.18 852 25.16 -5.3 22.5 62 -11.5 11.4
02:40 1022 30.18 852 25.16 -4.7 23.5 62 -11 12.2
02:45 1022 30.18 852 25.16 -4.6 23.7 62 -10.9 12.4
02:50 1023 30.21 852 25.16 -4.7 23.6 62 -10.9 12.4
02:55 1023 30.21 852 25.16 -5.5 22 65 -11.1 12.1
03:00 1023 30.21 852 25.16 -6.2 20.8 67 -11.4 11.4
03:05 1023 30.21 852 25.16 -6.4 20.4 68 -11.4 11.5
03:10 1023 30.21 852 25.16 -6.8 19.8 68 -11.8 10.8
03:15 1023 30.21 852 25.16 -7.2 19.1 70 -11.8 10.8
03:20 1023 30.21 852 25.16 -7.1 19.2 72 -11.4 11.5
03:25 1023 30.21 852 25.16 -7.1 19.2 68 -12 10.4
03:30 1023 30.21 852 25.16 -6.9 19.5 67 -12.2 10.1
03:35 1023 30.21 852 25.16 -6.9 19.5 66 -12.3 9.8
03:40 1023 30.21 852 25.16 -7.2 19 66 -12.5 9.5
03:45 1023 30.21 852 25.16 -7.2 19 67 -12.3 9.8
03:50 1023 30.21 852 25.16 -7.3 18.9 66 -12.5 9.4
03:55 1023 30.21 852 25.16 -7.5 18.5 68 -12.4 9.8
04:00 1023 30.21 852 25.16 -7.5 18.5 68 -12.3 9.8
04:05 1023 30.21 852 25.16 -7.4 18.7 66 -12.7 9.2
04:10 1023 30.21 852 25.16 -7.7 18.1 68 -12.7 9.2
04:15 1023 30.21 852 25.16 -8 17.6 69 -12.7 9.1
04:20 1023 30.21 852 25.16 -8.3 17.1 70 -12.8 8.9
04:25 1023 30.21 852 25.16 -8.6 16.6 70 -13.1 8.5
04:30 1023 30.21 852 25.16 -8.8 16.2 71 -13.2 8.3
04:35 1023 30.21 852 25.16 -8.9 16 70 -13.4 8
04:40 1023 30.21 852 25.16 -8.8 16.2 70 -13.3 8
04:45 1023 30.21 852 25.16 -8.7 16.4 69 -13.5 7.8
04:50 1023 30.21 852 25.16 -8.3 17.1 67 -13.4 7.9
04:55 1023 30.21 852 25.16 -8.4 16.9 67 -13.4 7.8
05:00 1023 30.21 852 25.16 -8.6 16.6 68 -13.5 7.7
05:05 1023 30.21 852 25.16 -8.3 17.1 65 -13.7 7.4
05:10 1023 30.21 852 25.16 -8.3 17.1 67 -13.4 7.8
05:15 1023 30.21 852 25.16 -8.6 16.6 67 -13.6 7.5
05:20 1023 30.21 852 25.16 -8.8 16.1 69 -13.6 7.6
05:25 1023 30.21 852 25.16 -8.6 16.5 66 -13.9 7
05:30 1023 30.21 852 25.16 -8.7 16.3 67 -13.9 7
05:35 1023 30.21 852 25.16 -9.1 15.6 69 -13.8 7.2
05:40 1023 30.21 852 25.16 -9.3 15.2 69 -14.1 6.6
05:45 1023 30.21 852 25.16 -9.1 15.5 68 -14 6.8
05:50 1023 30.21 852 25.16 -9.5 14.9 70 -14.1 6.7
05:55 1023 30.21 852 25.16 -9.7 14.5 71 -14.1 6.6
06:00 1023 30.21 852 25.16 -9.9 14.3 70 -14.3 6.2
06:05 1023 30.21 852 25.16 -9.7 14.5 69 -14.3 6.2
06:10 1023 30.21 852 25.16 -9.8 14.4 71 -14.1 6.6
06:15 1023 30.21 852 25.16 -9.8 14.4 71 -14 6.8
06:20 1023 30.21 852 25.16 -9.6 14.7 72 -13.8 7.1
06:25 1023 30.21 852 25.16 -9.7 14.6 72 -13.8 7.1
06:30 1023 30.21 852 25.16 -9.6 14.7 71 -13.9 7.1
06:35 1023 30.21 852 25.16 -9.4 15.2 71 -13.6 7.5
06:40 1023 30.21 852 25.16 -9.4 15.2 69 -14.1 6.7
06:45 1023 30.21 852 25.16 -9.4 15.2 66 -14.7 5.6
06:50 1023 30.21 852 25.16 -9.2 15.4 65 -14.6 5.6
06:55 1023 30.21 852 25.16 -9.1 15.7 65 -14.6 5.8
07:00 1023 30.21 852 25.16 -9 15.8 64 -14.7 5.5
07:05 1023 30.21 852 25.16 -9.2 15.5 65 -14.5 5.8
07:10 1023 30.21 852 25.16 -9.1 15.6 66 -14.4 6.1
07:15 1023 30.21 852 25.16 -9.2 15.4 67 -14.4 6.2
07:20 1023 30.21 852 25.16 -9.4 15.2 67 -14.3 6.2
07:25 1023 30.21 852 25.16 -9.3 15.3 67 -14.4 6.1
07:30 1023 30.21 852 25.16 -9.2 15.5 65 -14.5 5.9
07:35 1023 30.21 852 25.16 -9.1 15.6 65 -14.5 5.8
07:40 1023 30.21 852 25.16 -9.2 15.5 67 -14.3 6.3
07:45 1023 30.21 852 25.16 -9.1 15.6 66 -14.4 6.2
07:50 1023 30.21 852 25.16 -8.5 16.6 63 -14.3 6.2
07:55 1023 30.21 852 25.16 -8.7 16.3 64 -14.4 6
08:00 1023 30.21 852 25.16 -8.3 17 61 -14.6 5.7
08:05 1023 30.21 852 25.16 -8.5 16.7 63 -14.4 6.1
08:10 1023 30.21 852 25.16 -8.9 15.9 63 -14.8 5.4
08:15 1023 30.21 852 25.16 -8.9 16 63 -14.8 5.4
08:20 1023 30.21 852 25.16 -8.8 16.2 61 -15 5.1
08:25 1023 30.21 852 25.16 -8.5 16.6 62 -14.6 5.8
08:30 1023 30.21 852 25.16 -8.6 16.6 61 -14.9 5.2
08:35 1023 30.21 852 25.16 -8.3 17.1 61 -14.6 5.8
08:40 1023 30.21 852 25.16 -8.2 17.3 61 -14.4 6
08:45 1023 30.21 852 25.16 -8 17.6 59 -14.7 5.5
08:50 1023 30.21 852 25.16 -7.9 17.8 59 -14.6 5.7
08:55 1023 30.21 852 25.16 -7.9 17.8 59 -14.6 5.6
09:00 1023 30.21 852 25.16 -7.4 18.7 56 -14.7 5.6
09:05 1023 30.21 852 25.16 -7 19.5 58 -13.9 6.9
09:10 1023 30.21 852 25.16 -7 19.4 58 -14 6.8
09:15 1023 30.21 852 25.16 -7 19.5 58 -13.9 6.9
09:20 1023 30.21 853 25.19 -6.7 19.9 58 -13.6 7.5
09:25 1023 30.21 853 25.19 -6.9 19.7 62 -13 8.5
09:30 1023 30.21 853 25.19 -6.8 19.8 61 -13.1 8.5
09:35 1023 30.21 853 25.19 -6.4 20.5 58 -13.4 7.9
09:40 1023 30.21 853 25.19 -5.9 21.4 56 -13.3 8.1
09:45 1024 30.24 853 25.19 -5.8 21.5 55 -13.4 7.8
09:50 1024 30.24 853 25.19 -5.7 21.7 55 -13.4 7.8
09:55 1024 30.24 853 25.19 -5.4 22.2 52 -13.8 7.2
10:00 1024 30.24 853 25.19 -4.4 24.1 49 -13.7 7.4
10:05 1024 30.24 853 25.19 -3.3 26.1 46 -13.2 8.2
10:10 1024 30.24 853 25.19 -3.5 25.6 47 -13.4 7.9
10:15 1024 30.24 853 25.19 -3.8 25.1 49 -13.2 8.3
10:20 1024 30.24 853 25.19 -3.2 26.2 46 -13.4 8
10:25 1024 30.24 853 25.19 -3 26.6 48 -12.7 9.2
10:30 1024 30.24 853 25.19 -2.8 27 47 -12.5 9.6
10:35 1024 30.24 853 25.19 -2.7 27.2 47 -12.5 9.5
10:40 1024 30.24 853 25.19 -2.4 27.6 49 -11.8 10.8
10:45 1024 30.24 853 25.19 -2.3 27.9 49 -11.6 11.1
10:50 1024 30.24 853 25.19 -2.1 28.2 46 -12.2 10.1
10:55 1024 30.24 853 25.19 -2.4 27.6 47 -12.3 9.9
11:00 1024 30.24 853 25.19 -2.2 28.1 45 -12.7 9.2
11:05 1024 30.24 853 25.19 -3.5 25.7 51 -12.1 10.1
11:10 1024 30.24 853 25.19 -3.5 25.8 49 -12.6 9.2
11:15 1024 30.24 853 25.19 -2.4 27.7 47 -12.3 9.8
11:20 1024 30.24 853 25.19 -2.5 27.6 52 -11.1 12
11:25 1024 30.24 853 25.19 -3.2 26.3 50 -12.1 10.2
11:30 1024 30.24 853 25.19 -2.7 27.1 48 -12.2 10
11:35 1024 30.24 853 25.19 -2.6 27.2 48 -12.1 10.1
11:40 1024 30.24 853 25.19 -2.5 27.5 47 -12.3 9.8
11:45 1024 30.24 853 25.19 -1.9 28.6 45 -12.4 9.7
11:50 1024 30.24 853 25.19 -2.3 27.9 47 -12.2 10.1
11:55 1024 30.24 853 25.19 -1.9 28.6 43 -12.9 8.7
12:00 1024 30.24 853 25.19 -1.9 28.6 46 -12 10.4
12:05 1024 30.24 853 25.19 -1.1 30.1 43 -12 10.3
12:10 1024 30.24 853 25.19 -1.2 29.8 43 -12.4 9.8
12:15 1023 30.21 853 25.19 -2 28.3 46 -12.3 9.9
12:20 1023 30.21 853 25.19 -1.7 29 44 -12.4 9.6
12:25 1024 30.24 853 25.19 -1.1 30 41 -12.9 8.8
12:30 1024 30.24 853 25.19 -0.9 30.4 41 -12.6 9.3
12:35 1023 30.21 853 25.19 -0.3 31.5 39 -12.7 9.2
12:40 1023 30.21 853 25.19 0.1 32.2 38 -12.5 9.5
12:45 1023 30.21 853 25.19 0 32.1 39 -12.3 9.9
12:50 1023 30.21 853 25.19 0.1 32.1 38 -12.6 9.3
12:55 1023 30.21 853 25.19 -0.1 31.9 40 -12.1 10.2
13:00 1023 30.21 852 25.16 0 32 41 -11.9 10.7
13:05 1023 30.21 852 25.16 -0.1 31.8 43 -11.1 12
13:10 1023 30.21 852 25.16 -1.4 29.5 45 -11.8 10.8
13:15 1023 30.21 852 25.16 -0.9 30.4 44 -11.8 10.8
13:20 1023 30.21 852 25.16 -1.1 30 46 -11.4 11.5
13:25 1023 30.21 852 25.16 -1 30.1 46 -11.2 11.8
13:30 1023 30.21 852 25.16 -1 30.3 44 -11.8 10.8
13:35 1023 30.21 852 25.16 -0.7 30.7 44 -11.6 11.2
13:40 1023 30.21 852 25.16 -0.2 31.6 43 -11.5 11.4
13:45 1023 30.21 852 25.16 0 32.1 42 -11.4 11.4
13:50 1023 30.21 852 25.16 1.3 34.4 39 -11.1 12
13:55 1023 30.21 852 25.16 2.1 35.7 37 -11.3 11.6
14:00 1023 30.21 852 25.16 2.5 36.5 39 -10.2 13.7
14:05 1023 30.21 852 25.16 2.8 37.1 32 -12.2 10.1
14:10 1023 30.21 852 25.16 1.6 35 34 -12.8 9
14:15 1023 30.21 852 25.16 2.8 37 32 -12.5 9.6
14:20 1023 30.21 852 25.16 3.4 38.1 30 -12.4 9.7
14:25 1023 30.21 852 25.16 2.4 36.3 34 -12 10.4
14:30 1023 30.21 852 25.16 1.4 34.5 37 -12 10.5
14:35 1023 30.21 852 25.16 1.8 35.3 33 -12.8 8.9
14:40 1023 30.21 852 25.16 1.1 34 34 -13 8.6
14:45 1022 30.18 852 25.16 1.1 34 34 -12.9 8.7
14:50 1022 30.18 852 25.16 2.5 36.5 31 -12.9 8.8
14:55 1022 30.18 852 25.16 3.3 37.9 33 -11.5 11.3
15:00 1022 30.18 852 25.16 3 37.4 32 -12 10.4
15:05 1022 30.18 852 25.16 2.6 36.7 38 -10.5 13.1
15:10 1022 30.18 852 25.16 1.9 35.4 40 -10.2 13.6
15:15 1022 30.18 851 25.13 2 35.6 39 -10.7 12.7
15:20 1022 30.18 851 25.13 2 35.6 37 -11.2 11.8
15:25 1022 30.18 851 25.13 1.8 35.2 36 -11.8 10.7
15:30 1022 30.18 851 25.13 2.1 35.7 36 -11.6 11
15:35 1022 30.18 851 25.13 2.8 37 33 -11.9 10.5
15:40 1022 30.18 851 25.13 2.7 36.8 35 -11.4 11.5
15:45 1022 30.18 851 25.13 2.4 36.3 34 -11.9 10.6
15:50 1022 30.18 851 25.13 2.5 36.5 35 -11.4 11.5
15:55 1022 30.18 851 25.13 2.6 36.6 33 -12.3 9.8
16:00 1022 30.18 851 25.13 2.6 36.7 33 -12 10.4
16:05 1022 30.18 851 25.13 3 37.3 33 -11.9 10.6
16:10 1022 30.18 851 25.13 2.5 36.5 33 -12.1 10.2
16:15 1022 30.18 851 25.13 2.8 37.1 33 -11.9 10.5
16:20 1022 30.18 851 25.13 2.5 36.6 33 -12.1 10.2
16:25 1022 30.18 851 25.13 2.8 37.1 32 -12.3 9.9
16:30 1022 30.18 851 25.13 3.6 38.5 31 -12.1 10.3
16:35 1022 30.18 851 25.13 3.7 38.7 32 -11.4 11.4
16:40 1022 30.18 851 25.13 3.8 38.8 32 -11.5 11.3
16:45 1022 30.18 851 25.13 3.5 38.3 31 -12.2 10.1
16:50 1021 30.15 851 25.13 4 39.2 30 -12.2 10
16:55 1021 30.15 851 25.13 4.3 39.7 29 -12.1 10.3
17:00 1021 30.15 851 25.13 5 41 29 -11.7 10.9
17:05 1021 30.15 851 25.13 5.2 41.3 27 -12.2 10
17:10 1021 30.15 851 25.13 5.2 41.3 26 -12.7 9.1
17:15 1021 30.15 851 25.13 4.9 40.9 28 -12.2 10
17:20 1021 30.15 851 25.13 4.6 40.3 27 -12.7 9.1
17:25 1021 30.15 851 25.13 4.5 40.2 28 -12.3 9.8
17:30 1021 30.15 851 25.13 4.6 40.3 28 -12.4 9.6
17:35 1021 30.15 850 25.1 4.7 40.5 28 -12.4 9.6
17:40 1021 30.15 850 25.1 4.1 39.3 29 -12.6 9.3
17:45 1021 30.15 850 25.1 3.9 39.1 30 -12.3 9.9
17:50 1021 30.15 850 25.1 4.2 39.6 30 -12 10.4
17:55 1021 30.15 850 25.1 4.2 39.6 29 -12.2 10.1
18:00 1021 30.15 850 25.1 4.1 39.4 29 -12.2 10.1
18:05 1021 30.15 850 25.1 3.7 38.6 31 -12 10.4
18:10 1021 30.15 850 25.1 3.1 37.6 31 -12.3 9.8
18:15 1021 30.15 850 25.1 3.3 38 31 -12.4 9.8
18:20 1021 30.15 850 25.1 2.8 37.1 33 -12 10.4
18:25 1021 30.15 850 25.1 2.1 35.8 34 -12 10.3
18:30 1021 30.15 850 25.1 2 35.6 35 -11.8 10.8
18:35 1021 30.15 850 25.1 2.4 36.3 34 -11.9 10.7
18:40 1021 30.15 850 25.1 2.8 37.1 34 -11.7 11
18:45 1021 30.15 850 25.1 3 37.4 35 -11.2 11.9
18:50 1021 30.15 850 25.1 2.3 36.2 36 -11.4 11.5
18:55 1021 30.15 850 25.1 2.2 36 36 -11.5 11.4
19:00 1021 30.15 850 25.1 2.2 35.9 35 -11.8 10.8
19:05 1021 30.15 850 25.1 1.9 35.4 36 -11.6 11.1
19:10 1021 30.15 850 25.1 1.6 34.8 37 -11.7 11
19:15 1021 30.15 850 25.1 1.5 34.6 37 -11.7 10.9
19:20 1021 30.15 850 25.1 1.5 34.6 36 -12 10.4
19:25 1021 30.15 850 25.1 1.5 34.7 36 -12.1 10.3
19:30 1021 30.15 850 25.1 1.3 34.4 37 -11.9 10.7
19:35 1021 30.15 850 25.1 1.1 34.1 38 -11.8 10.7
19:40 1021 30.15 850 25.1 1 33.8 38 -11.8 10.7
19:45 1021 30.15 850 25.1 1 33.9 37 -12.1 10.2
19:50 1021 30.15 850 25.1 1.2 34.1 37 -12 10.5
19:55 1021 30.15 851 25.13 1.3 34.4 37 -11.7 10.9
20:00 1021 30.15 851 25.13 1.4 34.5 36 -12 10.3
20:05 1021 30.15 851 25.13 1.6 34.8 36 -12 10.4
20:10 1021 30.15 851 25.13 1.6 34.8 36 -12.1 10.2
20:15 1022 30.18 851 25.13 1.5 34.7 37 -11.7 10.9
20:20 1022 30.18 851 25.13 1.4 34.5 37 -11.6 11.1
20:25 1022 30.18 851 25.13 1.3 34.4 38 -11.5 11.3
20:30 1022 30.18 851 25.13 1.3 34.4 37 -11.9 10.5
20:35 1022 30.18 851 25.13 1.4 34.4 35 -12.4 9.8
20:40 1022 30.18 851 25.13 1.3 34.3 36 -12.4 9.7
20:45 1022 30.18 851 25.13 1.2 34.2 35 -12.7 9.2
20:50 1022 30.18 851 25.13 1.1 34 37 -12.2 10.1
20:55 1022 30.18 851 25.13 1 33.7 36 -12.6 9.3
21:00 1022 30.18 851 25.13 1 33.8 36 -12.4 9.7
21:05 1022 30.18 851 25.13 0.9 33.7 36 -12.4 9.6
21:10 1022 30.18 851 25.13 0.8 33.4 37 -12.3 9.9
21:15 1022 30.18 851 25.13 0.8 33.4 37 -12.4 9.7
21:20 1022 30.18 851 25.13 0.8 33.4 37 -12.3 9.8
21:25 1022 30.18 851 25.13 0.9 33.5 36 -12.5 9.5
21:30 1022 30.18 851 25.13 0.9 33.7 36 -12.5 9.4
21:35 1022 30.18 851 25.13 0.9 33.7 36 -12.5 9.5
21:40 1022 30.18 851 25.13 1 33.7 36 -12.5 9.4
21:45 1022 30.18 851 25.13 1 33.9 35 -12.7 9.1
21:50 1022 30.18 851 25.13 1 33.8 35 -12.7 9.1
21:55 1022 30.18 851 25.13 0.9 33.7 35 -12.8 8.9
22:00 1022 30.18 851 25.13 0.9 33.6 36 -12.5 9.5
22:05 1022 30.18 851 25.13 0.9 33.5 35 -13 8.7
22:10 1022 30.18 851 25.13 0.9 33.5 36 -12.8 9
22:15 1022 30.18 851 25.13 0.8 33.4 36 -12.6 9.3
22:20 1022 30.18 851 25.13 0.7 33.3 37 -12.4 9.7
22:25 1022 30.18 851 25.13 0.6 33.2 37 -12.6 9.3
22:30 1022 30.18 851 25.13 0.6 33.2 37 -12.6 9.3
22:35 1022 30.18 851 25.13 0.6 33.1 37 -12.6 9.3
22:40 1022 30.18 852 25.16 0.6 33.1 40 -11.5 11.2
22:45 1022 30.18 852 25.16 0.5 32.8 41 -11.2 11.8
22:50 1022 30.18 852 25.16 0.2 32.4 39 -12.1 10.3
22:55 1022 30.18 852 25.16 0.3 32.6 39 -12.2 10.1
23:00 1022 30.18 852 25.16 0.5 32.8 37 -12.7 9.2
23:05 1022 30.18 852 25.16 0.6 33 37 -12.4 9.7
23:10 1022 30.18 852 25.16 0.6 33.1 36 -12.7 9.2
23:15 1022 30.18 852 25.16 0.6 33 37 -12.5 9.5
23:20 1022 30.18 852 25.16 0.5 32.8 37 -12.8 9
23:25 1022 30.18 852 25.16 0.5 32.9 37 -12.5 9.4
23:30 1022 30.18 852 25.16 0.4 32.8 36 -12.9 8.8
23:35 1022 30.18 852 25.16 0.5 32.8 37 -12.8 9
23:40 1022 30.18 852 25.16 0.4 32.7 36 -12.9 8.8
23:45 1022 30.18 852 25.16 0.3 32.5 36 -13.3 8.1
23:50 1022 30.18 852 25.16 0.1 32.2 37 -12.9 8.8
23:55 1022 30.18 852 25.16 -0.1 31.9 37 -13 8.6
24:00 1022 30.18 852 25.16 -0.3 31.5 37 -13.3 8